Startpagina
METAR-TAF:

METAR-TAF

Vliegvelden :

Kosrae, Micronesië

breedte: 05-21N, lengte: 162-57E, hoogte: 3 m

Actueel weer

Dit bericht is 2 uur en het 21 minuten geleden gemaakt, om 03:50 UTC
Wind 12 kt uit het oostnoordoosten
Temperatuur 28°C
Vochtigheid 94%
Druk 1008 hPa
Zicht: 16.1 km
Gebroken wolken op 1600 ft, Stapelwolken.
Gebroken wolken op 13000 ft
Geheel bewolkt op 30000 ft

METAR: PTSA 240350Z 06012KT 10SM BKN016TCU BKN130 OVC300 28/27 A2978 RMK TCU NW-NE LAST

Tijdstip: 17:11 (06:11 UTC)

Verwachting

Dit bericht is 6 uur en het 42 minuten geleden gemaakt, om 23:29 UTC
Verwachting geldig van 24 om 00 UTC tot 24 om 24 UTC
Wind 11 kt uit het noordoosten
Zicht: 10 km
Verspreide wolken op 2000 ft
Verspreide wolken op 5000 ft
buien in de omgeving
Tijdelijke
van 24 om 02 UTC tot 24 om 06 UTC
Zicht: 8.0 km
Geheel bewolkt op 2000 ft
regenbuien

TAF: PTSA 232329Z 2400/2424 05011KT P6SM VCSH SCT020 SCT050 TEMPO 2402/2406 5SM SHRA OVC020

Waarnemingen en weersverwachtingen van meer dan 4000 vliegvelden (METAR en TAF).

De beschikbare stations zijn de gele en rode punten op de kaart.

Ga met uw muis naar het station om de naam te zien.

Klik dan om waarnemingen en weersverwachtingen te zien.

kaart wijzigen: klik op de groene knoppen met een zwart kruis om in te zoomen, op de groene knop met een streepje om uit te zoomen of op de groene pijlen voor aangrenzende kaarten.


METAR-TAF: